Observation data for Graham on 12/08/2018      Previous  Date       Current Mesonet Observations  Soil Data  Daily Summary Page  Observations in Plain Language
KGHS 080600Z 01010KT M00/M00 A3025 RMK A01 T10011004  RH  099%=      5-min Rain = 0
KGHS 080605Z 01010KT M00/M00 A3025 RMK A01 T10011004  RH  099%=      5-min Rain = 0
KGHS 080610Z 02010KT M00/M00 A3025 RMK A01 T10011004  RH  099%=      5-min Rain = 0
KGHS 080615Z 02011KT M00/M00 A3025 RMK A01 T10011004  RH  099%=      5-min Rain = 0
KGHS 080620Z 02011KT 00/00 A3025 RMK A01 T00-000-3  RH  099%=      5-min Rain = 0
KGHS 080625Z 02010KT 00/00 A3025 RMK A01 T00-000-3  RH  099%=      5-min Rain = 0.01
KGHS 080630Z 01012KT 00/00 A3025 RMK A01 T00-000-3  RH  099%=      5-min Rain = 0
KGHS 080635Z 01012KT 00/00 A3025 RMK A01 T00-000-3  RH  099%=      5-min Rain = 0.01
KGHS 080640Z 01010KT 00/00 A3025 RMK A01 T00-000-4  RH  099%=      5-min Rain = 0
KGHS 080645Z 01010KT 00/00 A3025 RMK A01 T000000-3  RH  099%=      5-min Rain = 0.01
KGHS 080650Z 01010KT 00/00 A3025 RMK A01 T000000-3  RH  099%=      5-min Rain = 0
KGHS 080655Z 02012KT 00/00 A3025 RMK A01 T000000-3  RH  099%=      5-min Rain = 0.01
KGHS 080700Z 02011KT 00/00 A3025 RMK A01 T000000-3  RH  099%=      5-min Rain = 0
KGHS 080705Z 02010KT 00/M00 A3025 RMK A01 T00011003  RH  099%=      5-min Rain = 0.01
KGHS 080710Z 01009KT 00/M00 A3025 RMK A01 T00011002  RH  099%=      5-min Rain = 0
KGHS 080715Z 02010KT 00/M00 A3025 RMK A01 T00011002  RH  099%=      5-min Rain = 0
KGHS 080720Z 02009KT 00/M00 A3024 RMK A01 T00011002  RH  099%=      5-min Rain = 0
KGHS 080725Z 02010KT 00/M00 A3024 RMK A01 T00021002  RH  099%=      5-min Rain = 0.01
KGHS 080730Z 02010KT 00/M00 A3024 RMK A01 T00021001  RH  099%=      5-min Rain = 0
KGHS 080735Z 01010KT 00/M00 A3023 RMK A01 T00021001  RH  099%=      5-min Rain = 0
KGHS 080740Z 01010KT 00/M00 A3024 RMK A01 T00021001  RH  099%=      5-min Rain = 0
KGHS 080745Z 01007KT 00/00 A3024 RMK A01 T000300-0  RH  099%=      5-min Rain = 0
KGHS 080750Z 01009KT 00/00 A3024 RMK A01 T00030000  RH  099%=      5-min Rain = 0
KGHS 080755Z 01009KT 00/00 A3023 RMK A01 T00030000  RH  099%=      5-min Rain = 0.01
KGHS 080800Z 01010KT 00/00 A3023 RMK A01 T00030000  RH  099%=      5-min Rain = 0
KGHS 080805Z 01010KT 00/00 A3023 RMK A01 T00030000  RH  099%=      5-min Rain = 0
KGHS 080810Z 01010KT 00/00 A3023 RMK A01 T000300-0  RH  099%=      5-min Rain = 0.01
KGHS 080815Z 01012KT 00/00 A3023 RMK A01 T000300-0  RH  099%=      5-min Rain = 0
KGHS 080820Z 01010KT 00/00 A3023 RMK A01 T00030000  RH  099%=      5-min Rain = 0.01
KGHS 080825Z 01009KT 00/00 A3023 RMK A01 T00030000  RH  099%=      5-min Rain = 0
KGHS 080830Z 00010KT 00/00 A3023 RMK A01 T00030000  RH  099%=      5-min Rain = 0
KGHS 080835Z 01010KT 00/00 A3023 RMK A01 T00030000  RH  099%=      5-min Rain = 0.01
KGHS 080840Z 01011KT 00/00 A3023 RMK A01 T00030000  RH  099%=      5-min Rain = 0
KGHS 080845Z 01009KT 00/00 A3023 RMK A01 T00030000  RH  099%=      5-min Rain = 0
KGHS 080850Z 01011KT 00/M00 A3023 RMK A01 T00021001  RH  099%=      5-min Rain = 0
KGHS 080855Z 01010KT 00/M00 A3023 RMK A01 T00021001  RH  099%=      5-min Rain = 0.01
KGHS 080900Z 01013KT 00/M00 A3022 RMK A01 T00011002  RH  099%=      5-min Rain = 0
KGHS 080905Z 01012KT 00/00 A3022 RMK A01 T00-000-3  RH  099%=      5-min Rain = 0
KGHS 080910Z 02012KT M00/M00 A3022 RMK A01 T10011003  RH  099%=      5-min Rain = 0.01
KGHS 080915Z 01012KT M00/M00 A3023 RMK A01 T10011004  RH  099%=      5-min Rain = 0
KGHS 080920Z 01012KT M00/M00 A3023 RMK A01 T10021004  RH  099%=      5-min Rain = 0
KGHS 080925Z 02010KT M00/M00 A3023 RMK A01 T10021004  RH  099%=      5-min Rain = 0
KGHS 080930Z 02010KT M00/M01 A3023 RMK A01 T10021005  RH  099%=      5-min Rain = 0
KGHS 080935Z 01009KT M00/M01 A3023 RMK A01 T10031005  RH  099%=      5-min Rain = 0
KGHS 080940Z 01008KT M00/M01 A3023 RMK A01 T10031005  RH  099%=      5-min Rain = 0
KGHS 080945Z 00007KT M00/M01 A3023 RMK A01 T10031005  RH  099%=      5-min Rain = 0
KGHS 080950Z 01008KT M00/M01 A3023 RMK A01 T10031006  RH  100%=      5-min Rain = 0
KGHS 080955Z 01010KT M00/M01 A3023 RMK A01 T10041006  RH  100%=      5-min Rain = 0
KGHS 081000Z 01009KT M00/M01 A3023 RMK A01 T10041006  RH  100%=      5-min Rain = 0
KGHS 081005Z 01010KT M00/M01 A3022 RMK A01 T10041006  RH  100%=      5-min Rain = 0
KGHS 081010Z 01009KT M00/M01 A3022 RMK A01 T10041006  RH  100%=      5-min Rain = 0.01
KGHS 081015Z 01010KT M00/M01 A3022 RMK A01 T10041006  RH  100%=      5-min Rain = 0
KGHS 081020Z 01011KT M01/M01 A3022 RMK A01 T10051007  RH  100%=      5-min Rain = 0
KGHS 081025Z 02011KT M01/M01 A3022 RMK A01 T10051007  RH  100%=      5-min Rain = 0
KGHS 081030Z 02011KT M01/M01 A3022 RMK A01 T10051007  RH  100%=      5-min Rain = 0
KGHS 081035Z 02011KT M01/M01 A3022 RMK A01 T10051007  RH  100%=      5-min Rain = 0
KGHS 081040Z 02010KT M01/M01 A3022 RMK A01 T10061008  RH  100%=      5-min Rain = 0
KGHS 081045Z 02009KT M01/M01 A3022 RMK A01 T10061008  RH  100%=      5-min Rain = 0
KGHS 081050Z 01009KT M01/M01 A3022 RMK A01 T10061008  RH  100%=      5-min Rain = 0
KGHS 081055Z 02009KT M01/M01 A3023 RMK A01 T10061008  RH  100%=      5-min Rain = 0
KGHS 081100Z 02009KT M01/M01 A3022 RMK A01 T10061008  RH  100%=      5-min Rain = 0
KGHS 081105Z 02010KT M01/M01 A3022 RMK A01 T10061008  RH  100%=      5-min Rain = 0
KGHS 081110Z 01009KT M01/M01 A3022 RMK A01 T10071008  RH  100%=      5-min Rain = 0
KGHS 081115Z 01009KT M01/M01 A3022 RMK A01 T10071008  RH  100%=      5-min Rain = 0
KGHS 081120Z 01011KT M01/M01 A3022 RMK A01 T10071009  RH  100%=      5-min Rain = 0
KGHS 081125Z 01011KT M01/M01 A3022 RMK A01 T10071009  RH  100%=      5-min Rain = 0
KGHS 081130Z 01009KT M01/M01 A3023 RMK A01 T10081009  RH  100%=      5-min Rain = 0
KGHS 081135Z 01009KT M01/M01 A3023 RMK A01 T10081009  RH  100%=      5-min Rain = 0
KGHS 081140Z 01009KT M01/M01 A3023 RMK A01 T10081009  RH  100%=      5-min Rain = 0
KGHS 081145Z 01008KT M01/M01 A3023 RMK A01 T10081009  RH  100%=      5-min Rain = 0
KGHS 081150Z 01008KT M01/M01 A3023 RMK A01 T10081009  RH  100%=      5-min Rain = 0
KGHS 081155Z 01008KT M01/M01 A3024 RMK A01 T10081010  RH  100%=      5-min Rain = 0
KGHS 081200Z 01007KT M01/M01 A3024 RMK A01 T10081010  RH  100%=      5-min Rain = 0
KGHS 081205Z 01007KT M01/M01 A3024 RMK A01 T10081010  RH  100%=      5-min Rain = 0
KGHS 081210Z 01006KT M01/M01 A3025 RMK A01 T10091010  RH  100%=      5-min Rain = 0
KGHS 081215Z 36006KT M01/M01 A3025 RMK A01 T10091010  RH  100%=      5-min Rain = 0
KGHS 081220Z 00007KT M01/M01 A3025 RMK A01 T10091010  RH  100%=      5-min Rain = 0
KGHS 081225Z 00006KT M01/M01 A3025 RMK A01 T10091010  RH  100%=      5-min Rain = 0
KGHS 081230Z 36007KT M01/M01 A3025 RMK A01 T10091011  RH  100%=      5-min Rain = 0
KGHS 081235Z 00008KT M01/M01 A3025 RMK A01 T10091011  RH  100%=      5-min Rain = 0
KGHS 081240Z 00008KT M01/M01 A3025 RMK A01 T10101011  RH  100%=      5-min Rain = 0
KGHS 081245Z 00008KT M01/M01 A3025 RMK A01 T10101011  RH  100%=      5-min Rain = 0
KGHS 081250Z 00007KT M01/M01 A3025 RMK A01 T10101011  RH  100%=      5-min Rain = 0
KGHS 081255Z 01009KT M01/M01 A3025 RMK A01 T10101011  RH  100%=      5-min Rain = 0
KGHS 081300Z 01009KT M01/M01 A3025 RMK A01 T10101011  RH  100%=      5-min Rain = 0
KGHS 081305Z 00008KT M01/M01 A3026 RMK A01 T10101012  RH  100%=      5-min Rain = 0
KGHS 081310Z 00008KT M01/M01 A3026 RMK A01 T10101012  RH  100%=      5-min Rain = 0
KGHS 081315Z 00008KT M01/M01 A3026 RMK A01 T10111012  RH  100%=      5-min Rain = 0
KGHS 081320Z 00009KT M01/M01 A3026 RMK A01 T10111012  RH  100%=      5-min Rain = 0
KGHS 081325Z 00008KT M01/M01 A3026 RMK A01 T10111012  RH  100%=      5-min Rain = 0
KGHS 081330Z 36009KT M01/M01 A3027 RMK A01 T10111012  RH  100%=      5-min Rain = 0
KGHS 081335Z 00009KT M01/M01 A3026 RMK A01 T10111012  RH  100%=      5-min Rain = 0
KGHS 081340Z 36009KT M01/M01 A3027 RMK A01 T10111012  RH  100%=      5-min Rain = 0
KGHS 081345Z 00010KT M01/M01 A3027 RMK A01 T10111012  RH  100%=      5-min Rain = 0
KGHS 081350Z 01010KT M01/M01 A3026 RMK A01 T10111012  RH  100%=      5-min Rain = 0
KGHS 081355Z 01010KT M01/M01 A3027 RMK A01 T10111013  RH  100%=      5-min Rain = 0
KGHS 081400Z 00009KT M01/M01 A3027 RMK A01 T10111013  RH  100%=      5-min Rain = 0
KGHS 081405Z 00010KT M01/M01 A3027 RMK A01 T10111013  RH  100%=      5-min Rain = 0
KGHS 081410Z 00010KT M01/M01 A3027 RMK A01 T10111012  RH  100%=      5-min Rain = 0
KGHS 081415Z 00010KT M01/M01 A3027 RMK A01 T10111012  RH  100%=      5-min Rain = 0
KGHS 081420Z 36010KT M01/M01 A3028 RMK A01 T10111012  RH  100%=      5-min Rain = 0
KGHS 081425Z 36010KT M01/M01 A3028 RMK A01 T10111012  RH  100%=      5-min Rain = 0
KGHS 081430Z 00011KT M01/M01 A3028 RMK A01 T10111012  RH  100%=      5-min Rain = 0
KGHS 081435Z 01012KT M01/M01 A3028 RMK A01 T10111012  RH  100%=      5-min Rain = 0
KGHS 081440Z 01014KT M01/M01 A3028 RMK A01 T10121013  RH  100%=      5-min Rain = 0
KGHS 081445Z 01012KT M01/M01 A3029 RMK A01 T10121013  RH  100%=      5-min Rain = 0
KGHS 081450Z 36010KT M01/M01 A3029 RMK A01 T10121013  RH  100%=      5-min Rain = 0
KGHS 081455Z 36009KT M01/M01 A3029 RMK A01 T10121013  RH  100%=      5-min Rain = 0
KGHS 081500Z 35010KT M01/M01 A303 RMK A01 T10111013  RH  100%=      5-min Rain = 0
KGHS 081505Z 00012KT M01/M01 A303 RMK A01 T10111013  RH  100%=      5-min Rain = 0
KGHS 081510Z 01012KT M01/M01 A303 RMK A01 T10121013  RH  100%=      5-min Rain = 0
KGHS 081515Z 00010KT M01/M01 A303 RMK A01 T10121013  RH  100%=      5-min Rain = 0
KGHS 081520Z 36009KT M01/M01 A303 RMK A01 T10111013  RH  100%=      5-min Rain = 0
KGHS 081525Z 36009KT M01/M01 A303 RMK A01 T10111012  RH  100%=      5-min Rain = 0
KGHS 081530Z 36009KT M01/M01 A303 RMK A01 T10111012  RH  100%=      5-min Rain = 0
KGHS 081535Z 36008KT M01/M01 A303 RMK A01 T10101012  RH  100%=      5-min Rain = 0
KGHS 081540Z 35010KT M01/M01 A303 RMK A01 T10101012  RH  100%=      5-min Rain = 0
KGHS 081545Z 36008KT M01/M01 A3031 RMK A01 T10101011  RH  100%=      5-min Rain = 0
KGHS 081550Z 00009KT M01/M01 A3031 RMK A01 T10101011  RH  100%=      5-min Rain = 0
KGHS 081555Z 36009KT M01/M01 A3031 RMK A01 T10101011  RH  100%=      5-min Rain = 0
KGHS 081600Z 36010KT M01/M01 A3031 RMK A01 T10101011  RH  100%=      5-min Rain = 0
KGHS 081605Z 36010KT M01/M01 A3031 RMK A01 T10091011  RH  100%=      5-min Rain = 0
KGHS 081610Z 00009KT M01/M01 A3031 RMK A01 T10091011  RH  100%=      5-min Rain = 0
KGHS 081615Z 00010KT M01/M01 A3031 RMK A01 T10091011  RH  100%=      5-min Rain = 0
KGHS 081620Z 00008KT M01/M01 A3032 RMK A01 T10091011  RH  100%=      5-min Rain = 0
KGHS 081625Z 00009KT M01/M01 A3032 RMK A01 T10091010  RH  100%=      5-min Rain = 0
KGHS 081630Z 01008KT M01/M01 A3032 RMK A01 T10081010  RH  100%=      5-min Rain = 0
KGHS 081635Z 00008KT M01/M01 A3032 RMK A01 T10081009  RH  100%=      5-min Rain = 0
KGHS 081640Z 00009KT M01/M01 A3032 RMK A01 T10081009  RH  100%=      5-min Rain = 0.01
KGHS 081645Z 01008KT M01/M01 A3032 RMK A01 T10081009  RH  100%=      5-min Rain = 0
KGHS 081650Z 01008KT M01/M01 A3032 RMK A01 T10071008  RH  100%=      5-min Rain = 0.01
KGHS 081655Z 01009KT M01/M01 A3032 RMK A01 T10071008  RH  100%=      5-min Rain = 0.01
KGHS 081700Z 01010KT M01/M01 A3032 RMK A01 T10071008  RH  100%=      5-min Rain = 0
KGHS 081705Z 01009KT M01/M01 A3032 RMK A01 T10061008  RH  100%=      5-min Rain = 0.02
KGHS 081710Z 01008KT M01/M01 A3032 RMK A01 T10061007  RH  100%=      5-min Rain = 0.01
KGHS 081715Z 01008KT M01/M01 A3032 RMK A01 T10051007  RH  100%=      5-min Rain = 0.01
KGHS 081720Z 01007KT M01/M01 A3032 RMK A01 T10051007  RH  100%=      5-min Rain = 0.01
KGHS 081725Z 01008KT M01/M01 A3032 RMK A01 T10051007  RH  100%=      5-min Rain = 0
KGHS 081730Z 00008KT M01/M01 A3032 RMK A01 T10051006  RH  100%=      5-min Rain = 0.01
KGHS 081735Z 01008KT M01/M01 A3032 RMK A01 T10051006  RH  100%=      5-min Rain = 0.01
KGHS 081740Z 35008KT M01/M01 A3031 RMK A01 T10051006  RH  100%=      5-min Rain = 0.01
KGHS 081745Z 35007KT M01/M01 A3031 RMK A01 T10051006  RH  100%=      5-min Rain = 0.01
KGHS 081750Z 36008KT M00/M01 A3031 RMK A01 T10041006  RH  100%=      5-min Rain = 0.01
KGHS 081755Z 36008KT M00/M01 A3031 RMK A01 T10041006  RH  100%=      5-min Rain = 0
KGHS 081800Z 36007KT M00/M01 A3031 RMK A01 T10041006  RH  100%=      5-min Rain = 0.01
KGHS 081805Z 35008KT M00/M01 A3031 RMK A01 T10041006  RH  100%=      5-min Rain = 0.01
KGHS 081810Z 35006KT M00/M01 A3031 RMK A01 T10041005  RH  100%=      5-min Rain = 0.01
KGHS 081815Z 35007KT M00/M01 A3031 RMK A01 T10041005  RH  100%=      5-min Rain = 0
KGHS 081820Z 35006KT M00/M01 A3031 RMK A01 T10031005  RH  100%=      5-min Rain = 0.01
KGHS 081825Z 34008KT M00/M01 A3031 RMK A01 T10031005  RH  100%=      5-min Rain = 0
KGHS 081830Z 35007KT M00/M01 A303 RMK A01 T10031005  RH  100%=      5-min Rain = 0.01
KGHS 081835Z 35008KT M00/M00 A303 RMK A01 T10031004  RH  100%=      5-min Rain = 0
KGHS 081840Z 35008KT M00/M00 A303 RMK A01 T10031004  RH  100%=      5-min Rain = 0.01
KGHS 081845Z 36009KT M00/M00 A3029 RMK A01 T10031004  RH  100%=      5-min Rain = 0
KGHS 081850Z 00006KT M00/M00 A3029 RMK A01 T10031004  RH  100%=      5-min Rain = 0.01
KGHS 081855Z 00007KT M00/M00 A3028 RMK A01 T10021004  RH  100%=      5-min Rain = 0
KGHS 081900Z 35007KT M00/M00 A3028 RMK A01 T10021004  RH  100%=      5-min Rain = 0
KGHS 081905Z 01006KT M00/M00 A3028 RMK A01 T10021003  RH  100%=      5-min Rain = 0
KGHS 081910Z 01007KT M00/M00 A3028 RMK A01 T10011003  RH  100%=      5-min Rain = 0
KGHS 081915Z 36008KT M00/M00 A3028 RMK A01 T10011003  RH  100%=      5-min Rain = 0
KGHS 081920Z 00007KT M00/M00 A3027 RMK A01 T10011003  RH  100%=      5-min Rain = 0
KGHS 081925Z 36007KT 00/00 A3027 RMK A01 T00-000-2  RH  100%=      5-min Rain = 0
KGHS 081930Z 36009KT 00/00 A3027 RMK A01 T000000-1  RH  100%=      5-min Rain = 0
KGHS 081935Z 35008KT 00/00 A3027 RMK A01 T000000-1  RH  100%=      5-min Rain = 0
KGHS 081940Z 35006KT 00/00 A3027 RMK A01 T000100-0  RH  100%=      5-min Rain = 0
KGHS 081945Z 01006KT 00/00 A3026 RMK A01 T00030001  RH  100%=      5-min Rain = 0
KGHS 081950Z 01006KT 00/00 A3026 RMK A01 T00030001  RH  100%=      5-min Rain = 0
KGHS 081955Z 01006KT 00/00 A3026 RMK A01 T00040002  RH  100%=      5-min Rain = 0
KGHS 082000Z 36007KT 00/00 A3026 RMK A01 T00040003  RH  100%=      5-min Rain = 0
KGHS 082005Z 35005KT 01/00 A3026 RMK A01 T00060004  RH  100%=      5-min Rain = 0
KGHS 082010Z 35006KT 01/01 A3025 RMK A01 T00070005  RH  100%=      5-min Rain = 0
KGHS 082015Z 35005KT 01/01 A3025 RMK A01 T00070005  RH  100%=      5-min Rain = 0
KGHS 082020Z 34007KT 01/01 A3025 RMK A01 T00070005  RH  100%=      5-min Rain = 0
KGHS 082025Z 31007KT 01/01 A3026 RMK A01 T00070006  RH  100%=      5-min Rain = 0
KGHS 082030Z 31007KT 01/01 A3026 RMK A01 T00090007  RH  100%=      5-min Rain = 0
KGHS 082035Z 34007KT 01/01 A3026 RMK A01 T00120010  RH  100%=      5-min Rain = 0
KGHS 082040Z 34009KT 01/01 A3026 RMK A01 T00100009  RH  100%=      5-min Rain = 0
KGHS 082045Z 35008KT 01/01 A3025 RMK A01 T00090007  RH  100%=      5-min Rain = 0
KGHS 082050Z 34007KT 01/01 A3025 RMK A01 T00100008  RH  100%=      5-min Rain = 0
KGHS 082055Z 34007KT 01/01 A3025 RMK A01 T00110009  RH  100%=      5-min Rain = 0
KGHS 082100Z 34008KT 01/01 A3025 RMK A01 T00100008  RH  100%=      5-min Rain = 0
KGHS 082105Z 34007KT 01/01 A3025 RMK A01 T00100008  RH  100%=      5-min Rain = 0
KGHS 082110Z 35006KT 01/01 A3025 RMK A01 T00110009  RH  100%=      5-min Rain = 0
KGHS 082115Z 35006KT 01/01 A3025 RMK A01 T00120010  RH  100%=      5-min Rain = 0
KGHS 082120Z 34007KT 01/01 A3025 RMK A01 T00110009  RH  100%=      5-min Rain = 0
KGHS 082125Z 34008KT 01/01 A3024 RMK A01 T00110009  RH  100%=      5-min Rain = 0
KGHS 082130Z 35007KT 01/01 A3024 RMK A01 T00100008  RH  100%=      5-min Rain = 0
KGHS 082135Z 35007KT 01/01 A3024 RMK A01 T00100008  RH  100%=      5-min Rain = 0
KGHS 082140Z 34007KT 01/01 A3024 RMK A01 T00100008  RH  100%=      5-min Rain = 0
KGHS 082145Z 35008KT 01/01 A3024 RMK A01 T00100008  RH  100%=      5-min Rain = 0
KGHS 082150Z 35008KT 01/01 A3024 RMK A01 T00100008  RH  100%=      5-min Rain = 0
KGHS 082155Z 33007KT 01/01 A3024 RMK A01 T00100008  RH  100%=      5-min Rain = 0
KGHS 082200Z 33009KT 01/01 A3024 RMK A01 T00100008  RH  100%=      5-min Rain = 0
KGHS 082205Z 34008KT 01/01 A3024 RMK A01 T00100007  RH  099%=      5-min Rain = 0
KGHS 082210Z 33008KT 01/01 A3025 RMK A01 T00100006  RH  098%=      5-min Rain = 0
KGHS 082215Z 34008KT 01/00 A3025 RMK A01 T00110004  RH  097%=      5-min Rain = 0
KGHS 082220Z 33008KT 01/00 A3025 RMK A01 T00100001  RH  095%=      5-min Rain = 0
KGHS 082225Z 33007KT 01/00 A3025 RMK A01 T00110002  RH  095%=      5-min Rain = 0
KGHS 082230Z 33006KT 01/00 A3025 RMK A01 T00110000  RH  094%=      5-min Rain = 0
KGHS 082235Z 34007KT 01/00 A3025 RMK A01 T001100-0  RH  093%=      5-min Rain = 0
KGHS 082240Z 34006KT 01/00 A3025 RMK A01 T00110000  RH  094%=      5-min Rain = 0
KGHS 082245Z 34008KT 01/M00 A3025 RMK A01 T00111001  RH  093%=      5-min Rain = 0
KGHS 082250Z 34008KT 01/M00 A3025 RMK A01 T00101003  RH  092%=      5-min Rain = 0
KGHS 082255Z 34009KT 01/M00 A3025 RMK A01 T00101003  RH  092%=      5-min Rain = 0
KGHS 082300Z 33009KT 01/M00 A3025 RMK A01 T00101003  RH  092%=      5-min Rain = 0
KGHS 082305Z 33007KT 01/M00 A3026 RMK A01 T00111002  RH  092%=      5-min Rain = 0
KGHS 082310Z 34007KT 01/M00 A3025 RMK A01 T00111002  RH  092%=      5-min Rain = 0
KGHS 082315Z 34007KT 01/M00 A3025 RMK A01 T00111002  RH  092%=      5-min Rain = 0
KGHS 082320Z 34006KT 01/M00 A3025 RMK A01 T00111002  RH  092%=      5-min Rain = 0
KGHS 082325Z 33007KT 01/M00 A3025 RMK A01 T00101003  RH  092%=      5-min Rain = 0
KGHS 082330Z 33008KT 01/M00 A3025 RMK A01 T00101004  RH  091%=      5-min Rain = 0
KGHS 082335Z 33008KT 01/M01 A3025 RMK A01 T00101005  RH  091%=      5-min Rain = 0
KGHS 082340Z 30007KT 01/M01 A3025 RMK A01 T00091006  RH  091%=      5-min Rain = 0
KGHS 082345Z 31006KT 01/M01 A3025 RMK A01 T00091005  RH  092%=      5-min Rain = 0
KGHS 082350Z 31008KT 01/M01 A3025 RMK A01 T00091005  RH  091%=      5-min Rain = 0
KGHS 082355Z 31006KT 01/M01 A3025 RMK A01 T00081006  RH  091%=      5-min Rain = 0
KGHS 090000Z 32006KT 01/M01 A3025 RMK A01 T00081006  RH  092%=      5-min Rain = 0
KGHS 090005Z 33006KT 01/M01 A3025 RMK A01 T00071007  RH  091%=      5-min Rain = 0
KGHS 090010Z 33006KT 01/M01 A3025 RMK A01 T00061009  RH  091%=      5-min Rain = 0
KGHS 090015Z 33006KT 00/M01 A3025 RMK A01 T00041009  RH  092%=      5-min Rain = 0
KGHS 090020Z 32006KT 00/M01 A3026 RMK A01 T00031010  RH  092%=      5-min Rain = 0
KGHS 090025Z 32006KT 00/M01 A3026 RMK A01 T00021009  RH  093%=      5-min Rain = 0
KGHS 090030Z 32005KT 00/M01 A3026 RMK A01 T00021009  RH  093%=      5-min Rain = 0
KGHS 090035Z 32005KT 00/M01 A3026 RMK A01 T00011010  RH  093%=      5-min Rain = 0
KGHS 090040Z 32005KT 00/01 A3027 RMK A01 T00000-10  RH  094%=      5-min Rain = 0
KGHS 090045Z 33005KT 00/01 A3027 RMK A01 T00000-10  RH  094%=      5-min Rain = 0
KGHS 090050Z 32005KT 00/01 A3027 RMK A01 T00-00-10  RH  094%=      5-min Rain = 0
KGHS 090055Z 32005KT M00/M01 A3027 RMK A01 T10011010  RH  094%=      5-min Rain = 0
KGHS 090100Z 32005KT M00/M01 A3028 RMK A01 T10011010  RH  094%=      5-min Rain = 0
KGHS 090105Z 32005KT M00/M01 A3028 RMK A01 T10021011  RH  094%=      5-min Rain = 0
KGHS 090110Z 32005KT M00/M01 A3028 RMK A01 T10021011  RH  095%=      5-min Rain = 0
KGHS 090115Z 32005KT M00/M01 A3027 RMK A01 T10021011  RH  095%=      5-min Rain = 0
KGHS 090120Z 32006KT M00/M01 A3027 RMK A01 T10031011  RH  095%=      5-min Rain = 0
KGHS 090125Z 32005KT M00/M01 A3027 RMK A01 T10031011  RH  095%=      5-min Rain = 0
KGHS 090130Z 33006KT M00/M01 A3028 RMK A01 T10031011  RH  095%=      5-min Rain = 0
KGHS 090135Z 33006KT M00/M01 A3028 RMK A01 T10031010  RH  095%=      5-min Rain = 0
KGHS 090140Z 33006KT M00/M01 A3028 RMK A01 T10021010  RH  096%=      5-min Rain = 0
KGHS 090145Z 33007KT M00/M01 A3027 RMK A01 T10021009  RH  096%=      5-min Rain = 0
KGHS 090150Z 32007KT M00/M01 A3028 RMK A01 T10011009  RH  095%=      5-min Rain = 0
KGHS 090155Z 33006KT M00/M01 A3028 RMK A01 T10011009  RH  095%=      5-min Rain = 0
KGHS 090200Z 33006KT M00/M01 A3028 RMK A01 T10011010  RH  095%=      5-min Rain = 0
KGHS 090205Z 33006KT M00/M01 A3028 RMK A01 T10021010  RH  095%=      5-min Rain = 0
KGHS 090210Z 33006KT M00/M01 A3028 RMK A01 T10031011  RH  095%=      5-min Rain = 0
KGHS 090215Z 33006KT M00/M01 A3028 RMK A01 T10041011  RH  095%=      5-min Rain = 0
KGHS 090220Z 33006KT M00/M01 A3029 RMK A01 T10041012  RH  096%=      5-min Rain = 0
KGHS 090225Z 32006KT M01/M01 A3029 RMK A01 T10051012  RH  096%=      5-min Rain = 0
KGHS 090230Z 32006KT M01/M01 A3029 RMK A01 T10061013  RH  096%=      5-min Rain = 0
KGHS 090235Z 32006KT M01/M01 A3028 RMK A01 T10061013  RH  096%=      5-min Rain = 0
KGHS 090240Z 32006KT M01/M01 A3028 RMK A01 T10071013  RH  097%=      5-min Rain = 0
KGHS 090245Z 32006KT M01/M01 A3028 RMK A01 T10071013  RH  097%=      5-min Rain = 0
KGHS 090250Z 32005KT M01/M01 A3028 RMK A01 T10081013  RH  097%=      5-min Rain = 0
KGHS 090255Z 31005KT M01/M01 A3029 RMK A01 T10081014  RH  097%=      5-min Rain = 0
KGHS 090300Z 30005KT M01/M01 A3029 RMK A01 T10081014  RH  097%=      5-min Rain = 0
KGHS 090305Z 31006KT M01/M01 A3029 RMK A01 T10091014  RH  097%=      5-min Rain = 0
KGHS 090310Z 30006KT M01/M02 A3029 RMK A01 T10091015  RH  097%=      5-min Rain = 0
KGHS 090315Z 30006KT M01/M02 A3029 RMK A01 T10101015  RH  097%=      5-min Rain = 0
KGHS 090320Z 30006KT M01/M02 A3029 RMK A01 T10101015  RH  097%=      5-min Rain = 0
KGHS 090325Z 30005KT M01/M02 A3029 RMK A01 T10101015  RH  097%=      5-min Rain = 0
KGHS 090330Z 31005KT M01/M02 A3029 RMK A01 T10101015  RH  097%=      5-min Rain = 0
KGHS 090335Z 29006KT M01/M02 A3029 RMK A01 T10101015  RH  097%=      5-min Rain = 0
KGHS 090340Z 29005KT M01/M02 A3029 RMK A01 T10101015  RH  097%=      5-min Rain = 0
KGHS 090345Z 28006KT M01/M02 A3029 RMK A01 T10091015  RH  097%=      5-min Rain = 0
KGHS 090350Z 29006KT M01/M02 A3029 RMK A01 T10101016  RH  097%=      5-min Rain = 0
KGHS 090355Z 29006KT M01/M02 A3029 RMK A01 T10111016  RH  097%=      5-min Rain = 0
KGHS 090400Z 29006KT M01/M02 A3029 RMK A01 T10121017  RH  097%=      5-min Rain = 0
KGHS 090405Z 29007KT M01/M02 A303 RMK A01 T10131018  RH  097%=      5-min Rain = 0
KGHS 090410Z 29007KT M01/M02 A303 RMK A01 T10131018  RH  097%=      5-min Rain = 0
KGHS 090415Z 29008KT M01/M02 A303 RMK A01 T10131018  RH  098%=      5-min Rain = 0
KGHS 090420Z 29007KT M01/M02 A303 RMK A01 T10131017  RH  098%=      5-min Rain = 0
KGHS 090425Z 29007KT M01/M02 A303 RMK A01 T10121017  RH  098%=      5-min Rain = 0
KGHS 090430Z 29006KT M01/M02 A303 RMK A01 T10121017  RH  098%=      5-min Rain = 0
KGHS 090435Z 29007KT M01/M02 A303 RMK A01 T10131017  RH  098%=      5-min Rain = 0
KGHS 090440Z 29007KT M01/M02 A303 RMK A01 T10131017  RH  098%=      5-min Rain = 0
KGHS 090445Z 29008KT M01/M02 A303 RMK A01 T10121016  RH  098%=      5-min Rain = 0
KGHS 090450Z 29007KT M01/M02 A3031 RMK A01 T10121017  RH  097%=      5-min Rain = 0
KGHS 090455Z 29007KT M01/M02 A3031 RMK A01 T10131018  RH  097%=      5-min Rain = 0
KGHS 090500Z 29007KT M01/M02 A3031 RMK A01 T10141018  RH  097%=      5-min Rain = 0
KGHS 090505Z 30006KT M01/M02 A303 RMK A01 T10141018  RH  098%=      5-min Rain = 0
KGHS 090510Z 30007KT M01/M02 A303 RMK A01 T10131017  RH  098%=      5-min Rain = 0
KGHS 090515Z 30008KT M01/M02 A303 RMK A01 T10131017  RH  098%=      5-min Rain = 0
KGHS 090520Z 30008KT M01/M02 A303 RMK A01 T10141018  RH  097%=      5-min Rain = 0
KGHS 090525Z 30009KT M01/M02 A303 RMK A01 T10141019  RH  097%=      5-min Rain = 0
KGHS 090530Z 30009KT M01/M02 A303 RMK A01 T10141019  RH  097%=      5-min Rain = 0
KGHS 090535Z 30009KT M01/M02 A303 RMK A01 T10141019  RH  097%=      5-min Rain = 0
KGHS 090540Z 29008KT M02/M02 A303 RMK A01 T10151020  RH  097%=      5-min Rain = 0
KGHS 090545Z 29008KT M02/M02 A303 RMK A01 T10151020  RH  097%=      5-min Rain = 0
KGHS 090550Z 30008KT M01/M02 A303 RMK A01 T10131018  RH  097%=      5-min Rain = 0
KGHS 090555Z 30008KT M01/M02 A303 RMK A01 T10141019  RH  097%=      5-min Rain = 0

Page generated in 0.0158 seconds.